Time;durP1;ratioP1;P1;durP2;ratioP2;P2;SDS_P1;SDS_P2;PMS_P1;PMS_P2;Temp;Humidity;BMP_temperature;BMP_pressure;BME280_temperature;BME280_humidity;BME280_pressure;Samples;Min_cycle;Max_cycle;Signal;HPM_P1;HPM_P2
2021/11/27 00:01:53;;;;;;;2.20;2.00;;;;;;;12.20;50.53;98170.59;5041852;28;20037;-56
2021/11/27 00:04:19;;;;;;;2.15;1.85;;;;;;;12.19;50.78;98172.47;5042763;28;20049;-56
2021/11/27 00:06:44;;;;;;;4.72;2.10;;;;;;;12.16;50.38;98164.81;5042099;28;20024;-56
2021/11/27 00:09:10;;;;;;;2.42;1.58;;;;;;;12.20;50.78;98168.72;5043191;28;20017;-56
2021/11/27 00:11:36;;;;;;;2.17;1.75;;;;;;;12.15;50.70;98155.09;5042755;28;20021;-56
2021/11/27 00:14:03;;;;;;;2.38;2.00;;;;;;;12.13;50.76;98162.53;5038237;28;20391;-57
2021/11/27 00:16:29;;;;;;;1.83;1.65;;;;;;;12.11;50.92;98164.63;5031695;28;20502;-56
2021/11/27 00:18:54;;;;;;;4.03;1.83;;;;;;;12.11;51.22;98164.63;5032951;28;20191;-56
2021/11/27 00:21:21;;;;;;;3.67;1.90;;;;;;;12.14;51.15;98180.28;5031576;28;20036;-56
2021/11/27 00:23:47;;;;;;;2.00;1.77;;;;;;;12.10;50.99;98168.31;5033449;28;20033;-56
2021/11/27 00:26:13;;;;;;;2.45;1.90;;;;;;;12.13;50.77;98180.50;5032895;28;20116;-57
2021/11/27 00:28:39;;;;;;;0.80;0.80;;;;;;;12.09;51.10;98182.75;5031489;28;20034;-56
2021/11/27 00:31:12;;;;;;;0.85;0.70;;;;;;;12.06;50.97;98193.09;5033014;28;20029;-56
2021/11/27 00:33:38;;;;;;;0.82;0.82;;;;;;;12.00;51.04;98194.72;5032700;28;20068;-56
2021/11/27 00:36:04;;;;;;;0.77;0.75;;;;;;;11.94;50.32;98187.47;5033345;28;20601;-56
2021/11/27 00:38:30;;;;;;;2.15;0.70;;;;;;;11.87;51.32;98186.63;5033811;28;20041;-56
2021/11/27 00:40:55;;;;;;;0.68;0.60;;;;;;;11.88;50.95;98196.34;5037204;28;20037;-56
2021/11/27 00:43:21;;;;;;;0.63;0.63;;;;;;;11.84;50.18;98196.91;5035959;28;20083;-56
2021/11/27 00:45:47;;;;;;;0.40;0.40;;;;;;;11.81;50.47;98206.19;5037280;28;20029;-56
2021/11/27 00:48:14;;;;;;;0.40;0.40;;;;;;;11.80;51.15;98203.72;5037038;28;20053;-55
2021/11/27 00:50:47;;;;;;;0.47;0.47;;;;;;;11.74;50.22;98216.09;5037140;28;20033;-56
2021/11/27 00:53:13;;;;;;;0.40;0.40;;;;;;;11.65;50.50;98211.88;5035708;28;20460;-56
2021/11/27 00:55:38;;;;;;;0.40;0.40;;;;;;;11.63;50.34;98222.00;5035543;28;20101;-55
2021/11/27 00:58:04;;;;;;;0.60;0.60;;;;;;;11.60;50.46;98225.06;5036559;28;20037;-56
2021/11/27 01:00:33;;;;;;;0.30;0.30;;;;;;;11.60;50.70;98219.72;5036346;28;20080;-56
2021/11/27 01:03:00;;;;;;;0.35;0.30;;;;;;;11.52;50.81;98217.22;5036313;28;20041;-56
2021/11/27 01:05:25;;;;;;;0.40;0.40;;;;;;;11.54;50.40;98226.69;5035157;28;20043;-56
2021/11/27 01:07:51;;;;;;;0.40;0.38;;;;;;;11.50;49.99;98224.63;5036373;28;20021;-55
2021/11/27 01:10:21;;;;;;;0.40;0.40;;;;;;;11.45;50.58;98216.34;5036339;28;20045;-55
2021/11/27 01:12:47;;;;;;;0.65;0.45;;;;;;;11.44;50.23;98230.78;5036540;28;20025;-55
2021/11/27 01:15:15;;;;;;;0.68;0.45;;;;;;;11.44;50.41;98238.81;5035410;28;20025;-55
2021/11/27 01:17:40;;;;;;;0.25;0.25;;;;;;;11.45;50.30;98232.41;5037037;28;20061;-56
2021/11/27 01:20:07;;;;;;;0.50;0.40;;;;;;;11.42;49.72;98232.81;5035954;28;20057;-56
2021/11/27 01:22:33;;;;;;;0.38;0.30;;;;;;;11.38;50.05;98236.94;5035278;28;20036;-56
2021/11/27 01:24:58;;;;;;;0.38;0.38;;;;;;;11.40;49.90;98250.94;5035387;28;20037;-55
2021/11/27 01:27:26;;;;;;;0.30;0.30;;;;;;;11.40;50.17;98250.94;5036244;28;20032;-56
2021/11/27 01:29:51;;;;;;;0.30;0.30;;;;;;;11.40;50.22;98245.59;5019034;28;20068;-55
2021/11/27 01:32:17;;;;;;;0.38;0.30;;;;;;;11.43;50.19;98245.19;5036177;28;20069;-56
2021/11/27 01:34:42;;;;;;;0.60;0.47;;;;;;;11.44;50.27;98249.53;5036016;28;20045;-56
2021/11/27 01:37:09;;;;;;;0.40;0.40;;;;;;;11.45;50.10;98243.97;5036328;28;20029;-57
2021/11/27 01:39:35;;;;;;;0.40;0.40;;;;;;;11.43;49.79;98240.66;5036284;28;20538;-55
2021/11/27 01:42:00;;;;;;;0.20;0.20;;;;;;;11.49;50.05;98255.13;5036128;28;20121;-55
2021/11/27 01:44:26;;;;;;;0.40;0.40;;;;;;;11.47;49.80;98243.78;5036060;28;20029;-56
2021/11/27 01:46:53;;;;;;;0.52;0.52;;;;;;;11.47;49.85;98241.91;5034740;28;20036;-56
2021/11/27 01:49:19;;;;;;;0.30;0.30;;;;;;;11.47;49.86;98247.25;5034998;28;20039;-56
2021/11/27 01:51:45;;;;;;;0.77;0.50;;;;;;;11.46;50.44;98244.78;5034655;28;20029;-56
2021/11/27 01:54:11;;;;;;;0.80;0.80;;;;;;;11.45;49.56;98237.78;5034544;28;20037;-55
2021/11/27 01:56:44;;;;;;;1.00;0.68;;;;;;;11.44;50.06;98238.81;5035677;28;20541;-56
2021/11/27 01:59:10;;;;;;;0.80;0.52;;;;;;;11.44;49.94;98247.69;5035865;28;20036;-56
2021/11/27 02:01:37;;;;;;;0.55;0.55;;;;;;;11.45;50.03;98245.81;5035821;28;20037;-55
2021/11/27 02:04:06;;;;;;;0.47;0.47;;;;;;;11.48;49.97;98250.78;5035782;28;20060;-55
2021/11/27 02:06:33;;;;;;;0.60;0.60;;;;;;;11.47;49.59;98241.09;5035616;28;20029;-55
2021/11/27 02:08:59;;;;;;;0.93;0.80;;;;;;;11.47;50.10;98241.09;5034455;28;20033;-55
2021/11/27 02:11:28;;;;;;;1.17;0.95;;;;;;;11.48;50.34;98256.16;5034241;28;20021;-55
2021/11/27 02:13:54;;;;;;;1.02;0.93;;;;;;;11.48;50.28;98248.09;5034829;28;20095;-55
2021/11/27 02:16:20;;;;;;;3.83;1.25;;;;;;;11.45;50.43;98248.50;5035413;28;20079;-55
2021/11/27 02:18:46;;;;;;;0.80;0.80;;;;;;;11.49;49.98;98255.13;5017890;28;20383;-55
2021/11/27 02:21:14;;;;;;;1.42;1.05;;;;;;;11.49;49.65;98255.13;5034565;28;20556;-55
2021/11/27 02:23:40;;;;;;;1.00;0.90;;;;;;;11.47;49.97;98258.00;5035297;28;20030;-56
2021/11/27 02:26:09;;;;;;;3.58;1.10;;;;;;;11.44;49.59;98257.59;5033658;28;20051;-56
2021/11/27 02:28:37;;;;;;;0.95;0.95;;;;;;;11.47;50.12;98271.38;5034863;28;20030;-55
2021/11/27 02:31:03;;;;;;;1.20;1.10;;;;;;;11.48;49.75;98269.53;5034888;28;20478;-56
2021/11/27 02:33:29;;;;;;;1.15;1.05;;;;;;;11.38;49.57;98261.03;5033605;28;20040;-56
2021/11/27 02:35:55;;;;;;;1.33;1.20;;;;;;;11.47;49.88;98274.06;5034733;28;20482;-56
2021/11/27 02:38:20;;;;;;;1.23;1.13;;;;;;;11.48;49.73;98277.59;5034634;28;20034;-57
2021/11/27 02:40:46;;;;;;;2.08;1.30;;;;;;;11.48;50.05;98272.22;5034418;28;20070;-56
2021/11/27 02:43:12;;;;;;;1.80;1.25;;;;;;;11.45;50.02;98280.66;5017236;28;20029;-56
2021/11/27 02:45:37;;;;;;;2.08;1.15;;;;;;;11.42;50.32;98265.81;5033480;28;20136;-56
2021/11/27 02:48:04;;;;;;;1.13;0.90;;;;;;;11.42;49.46;98275.69;5033433;28;20029;-56
2021/11/27 02:50:29;;;;;;;1.95;1.27;;;;;;;11.42;49.48;98279.19;5034139;28;20034;-56
2021/11/27 02:52:55;;;;;;;1.98;1.27;;;;;;;11.40;49.96;98277.75;5034094;28;20094;-56
2021/11/27 02:55:20;;;;;;;1.65;1.23;;;;;;;11.39;49.85;98281.47;5034100;28;20033;-55
2021/11/27 02:57:46;;;;;;;1.20;1.13;;;;;;;11.39;49.80;98287.63;5033105;28;20063;-55
2021/11/27 03:00:17;;;;;;;2.25;1.70;;;;;;;11.39;50.14;98284.16;5034262;28;20478;-55
2021/11/27 03:02:43;;;;;;;2.72;1.80;;;;;;;11.41;50.09;98290.13;5033960;28;20385;-55
2021/11/27 03:05:09;;;;;;;2.28;1.52;;;;;;;11.40;49.93;98283.94;5034021;28;20159;-56
2021/11/27 03:07:34;;;;;;;2.53;1.67;;;;;;;11.40;49.85;98289.31;5034227;28;20078;-55
2021/11/27 03:10:00;;;;;;;2.58;2.03;;;;;;;11.41;49.80;98290.97;5034303;28;20030;-56
2021/11/27 03:12:26;;;;;;;2.90;1.88;;;;;;;11.41;49.73;98290.13;5033968;28;20182;-56
2021/11/27 03:14:51;;;;;;;2.95;1.63;;;;;;;11.41;49.77;98290.13;5033838;28;20030;-56
2021/11/27 03:17:17;;;;;;;4.07;1.90;;;;;;;11.41;49.56;98296.34;5032661;28;20036;-55
2021/11/27 03:19:43;;;;;;;2.38;1.95;;;;;;;11.42;49.86;98291.78;5033474;28;20086;-56
2021/11/27 03:22:10;;;;;;;3.83;2.03;;;;;;;11.41;49.29;98290.97;5033510;28;20060;-56
2021/11/27 03:24:36;;;;;;;3.00;2.28;;;;;;;11.39;49.60;98297.56;5034180;28;20486;-56
2021/11/27 03:27:03;;;;;;;3.28;2.13;;;;;;;11.35;50.21;98301.63;5033450;28;20025;-56
2021/11/27 03:29:29;;;;;;;3.35;2.00;;;;;;;11.35;49.53;98307.00;5033411;28;20116;-56
2021/11/27 03:32:05;;;;;;;2.83;2.03;;;;;;;11.33;49.79;98301.00;5032419;28;20108;-56
2021/11/27 03:34:30;;;;;;;6.43;2.60;;;;;;;11.26;50.22;98295.59;5034237;28;20100;-55
2021/11/27 03:36:56;;;;;;;8.52;3.30;;;;;;;11.25;50.06;98290.44;5032623;28;20053;-56
2021/11/27 03:39:22;;;;;;;3.55;2.50;;;;;;;11.23;50.19;98289.78;5033767;28;20036;-56
2021/11/27 03:41:47;;;;;;;4.05;3.15;;;;;;;11.26;49.84;98297.44;4999840;28;20489;-56
2021/11/27 03:44:13;;;;;;;4.72;2.85;;;;;;;11.21;49.98;98292.69;5033624;28;20021;-56
2021/11/27 03:46:38;;;;;;;3.90;2.65;;;;;;;11.20;49.90;98288.34;5033128;28;20383;-56
2021/11/27 03:49:04;;;;;;;6.38;2.83;;;;;;;11.18;49.48;98295.75;5033269;28;20030;-56
2021/11/27 03:51:29;;;;;;;6.28;3.03;;;;;;;11.17;49.59;98314.72;5033497;28;20080;-56
2021/11/27 03:53:55;;;;;;;6.43;2.72;;;;;;;11.17;49.74;98312.84;5032477;28;20483;-56
2021/11/27 03:56:29;;;;;;;5.47;3.78;;;;;;;11.16;49.78;98302.31;5033358;28;20033;-55
2021/11/27 03:58:56;;;;;;;6.75;2.63;;;;;;;11.15;49.55;98306.03;5033481;28;20029;-55
2021/11/27 04:01:23;;;;;;;5.10;3.33;;;;;;;11.13;49.92;98306.22;5033510;28;20034;-55
2021/11/27 04:03:50;;;;;;;3.50;2.78;;;;;;;11.11;49.66;98317.13;5033266;28;20375;-56
2021/11/27 04:06:17;;;;;;;8.80;3.05;;;;;;;11.17;49.60;98320.06;5032371;28;20025;-56
2021/11/27 04:08:42;;;;;;;6.55;2.65;;;;;;;11.18;49.81;98319.88;5032942;28;20390;-56
2021/11/27 04:11:08;;;;;;;3.65;2.67;;;;;;;11.20;49.63;98319.66;5033001;28;20046;-57
2021/11/27 04:13:33;;;;;;;5.20;2.92;;;;;;;11.20;49.53;98325.00;5031598;28;20029;-56
2021/11/27 04:15:59;;;;;;;4.93;2.70;;;;;;;11.23;49.37;98329.97;5033315;28;20033;-56
2021/11/27 04:18:25;;;;;;;3.83;2.88;;;;;;;11.24;49.73;98331.66;5033113;28;20084;-56
2021/11/27 04:20:51;;;;;;;6.60;2.67;;;;;;;11.24;49.38;98328.97;5033129;28;20039;-56
2021/11/27 04:23:17;;;;;;;5.40;2.75;;;;;;;11.20;50.05;98317.81;5032932;28;20470;-56
2021/11/27 04:25:43;;;;;;;5.22;2.75;;;;;;;11.26;49.75;98330.44;5031782;28;20032;-57
2021/11/27 04:28:09;;;;;;;5.53;2.53;;;;;;;11.29;49.71;98334.56;5032639;28;20079;-57
2021/11/27 04:30:35;;;;;;;5.82;3.15;;;;;;;11.29;49.81;98338.09;5032968;28;20021;-57
2021/11/27 04:33:00;;;;;;;3.83;2.47;;;;;;;11.30;49.77;98344.28;5032862;28;20580;-57
2021/11/27 04:35:27;;;;;;;9.98;3.17;;;;;;;11.29;50.17;98332.72;5032994;28;20064;-57
2021/11/27 04:37:54;;;;;;;4.72;2.53;;;;;;;11.30;49.64;98337.06;5032534;28;20075;-57
2021/11/27 04:40:19;;;;;;;5.07;2.80;;;;;;;11.29;49.71;98335.41;5031686;28;20037;-57
2021/11/27 04:42:45;;;;;;;3.50;2.80;;;;;;;11.35;49.53;98339.16;5031199;28;20021;-56
2021/11/27 04:45:11;;;;;;;4.40;2.47;;;;;;;11.37;49.94;98354.00;5032380;28;20072;-57
2021/11/27 04:47:37;;;;;;;3.75;2.35;;;;;;;11.36;49.76;98347.00;5032250;28;20100;-57
2021/11/27 04:50:04;;;;;;;4.15;2.75;;;;;;;11.35;50.07;98344.50;5032217;28;20040;-57
2021/11/27 04:52:29;;;;;;;7.78;2.97;;;;;;;11.26;50.00;98340.31;5032372;28;20025;-57
2021/11/27 04:54:54;;;;;;;5.07;3.00;;;;;;;11.29;49.87;98351.47;5031048;28;20026;-57
2021/11/27 04:57:20;;;;;;;5.20;2.78;;;;;;;11.26;49.97;98357.22;5031057;28;20025;-57
2021/11/27 04:59:45;;;;;;;6.57;2.78;;;;;;;11.21;50.26;98359.66;5032068;28;20406;-57
2021/11/27 05:02:11;;;;;;;8.55;3.42;;;;;;;11.18;50.04;98353.84;5032842;28;20036;-55
2021/11/27 05:04:37;;;;;;;8.93;3.53;;;;;;;11.22;50.14;98355.16;5032668;28;20552;-55
2021/11/27 05:07:03;;;;;;;5.82;4.28;;;;;;;11.20;50.58;98362.53;5032534;28;20017;-55
2021/11/27 05:09:28;;;;;;;11.23;4.00;;;;;;;11.18;49.88;98367.25;5032929;28;20155;-55
2021/11/27 05:11:54;;;;;;;7.43;3.80;;;;;;;11.17;49.93;98368.28;5032957;28;20484;-55
2021/11/27 05:14:19;;;;;;;12.50;5.13;;;;;;;11.17;50.25;98371.78;5015335;28;20436;-55
2021/11/27 05:16:45;;;;;;;10.95;4.57;;;;;;;11.13;50.32;98361.66;5032781;28;20065;-56
2021/11/27 05:19:10;;;;;;;9.70;4.03;;;;;;;11.20;50.17;98370.56;5032506;28;20490;-56
2021/11/27 05:21:35;;;;;;;12.95;3.95;;;;;;;11.20;50.24;98368.72;5032289;28;20032;-56
2021/11/27 05:24:01;;;;;;;9.43;4.38;;;;;;;11.19;50.15;98377.78;5032832;28;20497;-56
2021/11/27 05:26:27;;;;;;;15.45;4.85;;;;;;;11.19;50.83;98383.16;5035894;28;20032;-56
2021/11/27 05:28:52;;;;;;;11.07;4.25;;;;;;;11.21;50.12;98381.09;5036306;28;20021;-55
2021/11/27 05:31:19;;;;;;;14.80;5.60;;;;;;;11.23;50.00;98383.56;5036002;28;20080;-56
2021/11/27 05:36:15;;;;;;;12.20;5.38;;;;;;;11.26;50.08;98383.19;5036542;28;20533;-56
2021/11/27 05:38:41;;;;;;;16.35;5.95;;;;;;;11.26;49.85;98380.50;5036041;28;20018;-55
2021/11/27 05:41:06;;;;;;;9.18;4.32;;;;;;;11.28;50.03;98381.16;5034817;28;20055;-56
2021/11/27 05:43:32;;;;;;;9.13;4.85;;;;;;;11.28;50.20;98387.34;5035913;28;20064;-55
2021/11/27 05:45:58;;;;;;;9.75;4.90;;;;;;;11.29;49.17;98385.47;5035637;28;20068;-56
2021/11/27 05:48:24;;;;;;;16.75;4.88;;;;;;;11.29;49.84;98388.16;5034641;28;20017;-55
2021/11/27 05:50:49;;;;;;;8.85;4.57;;;;;;;11.29;49.93;98385.47;5036030;28;20036;-55
2021/11/27 05:53:18;;;;;;;9.88;4.45;;;;;;;11.23;49.46;98388.94;5036208;28;20386;-55
2021/11/27 05:55:46;;;;;;;13.38;5.13;;;;;;;11.20;50.38;98392.84;5035953;28;20021;-55
2021/11/27 05:58:11;;;;;;;10.60;4.95;;;;;;;11.18;49.96;98402.09;5036310;28;20029;-55
2021/11/27 06:00:37;;;;;;;12.32;5.20;;;;;;;11.11;49.33;98399.34;5035673;28;20029;-55
2021/11/27 06:03:02;;;;;;;10.65;4.93;;;;;;;11.07;49.45;98398.91;5036101;28;20025;-56
2021/11/27 06:05:29;;;;;;;13.80;5.28;;;;;;;11.04;49.97;98396.63;5035613;28;20301;-56
2021/11/27 06:07:55;;;;;;;12.40;5.28;;;;;;;11.04;48.92;98412.69;5035909;28;20393;-56
2021/11/27 06:10:21;;;;;;;7.40;3.92;;;;;;;11.02;49.30;98414.75;5035257;28;20100;-56
2021/11/27 06:12:46;;;;;;;8.20;4.88;;;;;;;11.02;49.32;98425.44;5035191;28;20045;-55
2021/11/27 06:15:12;;;;;;;9.05;4.47;;;;;;;11.00;49.43;98435.50;5034063;28;20087;-56
2021/11/27 06:17:37;;;;;;;9.88;3.83;;;;;;;10.96;49.57;98436.94;5035814;28;20483;-56
2021/11/27 06:20:03;;;;;;;9.68;5.38;;;;;;;10.89;49.56;98427.97;5033716;28;20048;-56
2021/11/27 06:22:29;;;;;;;14.38;4.55;;;;;;;10.94;49.65;98440.81;5035332;28;20033;-56
2021/11/27 06:24:54;;;;;;;10.23;4.85;;;;;;;10.91;49.57;98442.03;5033775;28;20036;-56
2021/11/27 06:27:20;;;;;;;13.02;4.93;;;;;;;10.87;49.48;98438.06;5035022;28;20101;-56
2021/11/27 06:29:45;;;;;;;9.70;4.68;;;;;;;10.81;49.57;98444.16;5033883;28;20037;-56
2021/11/27 06:32:11;;;;;;;13.38;4.60;;;;;;;10.77;49.41;98442.91;5035120;28;20025;-56
2021/11/27 06:34:38;;;;;;;11.60;4.93;;;;;;;10.69;49.28;98442.19;5033714;28;20040;-56
2021/11/27 06:37:04;;;;;;;15.98;5.53;;;;;;;10.68;49.32;98452.06;5035151;28;20026;-56
2021/11/27 06:39:29;;;;;;;13.05;4.72;;;;;;;10.68;49.71;98459.25;5033657;28;20033;-56
2021/11/27 06:41:56;;;;;;;13.68;4.88;;;;;;;10.67;49.25;98469.13;5034620;28;20125;-56
2021/11/27 06:44:21;;;;;;;11.13;4.88;;;;;;;10.66;49.68;98464.81;5034688;28;20108;-56
2021/11/27 06:46:47;;;;;;;11.30;5.45;;;;;;;10.61;49.91;98459.16;5034504;28;20397;-56
2021/11/27 06:49:14;;;;;;;12.50;4.95;;;;;;;10.64;49.73;98474.84;5033300;28;20032;-56
2021/11/27 06:51:39;;;;;;;11.73;3.95;;;;;;;10.63;49.47;98472.38;5034897;28;20120;-55
2021/11/27 06:54:05;;;;;;;15.90;5.13;;;;;;;10.62;49.87;98482.25;5033800;28;20085;-55
2021/11/27 06:56:30;;;;;;;14.00;5.45;;;;;;;10.58;49.41;98486.31;5033487;28;20029;-55
2021/11/27 06:58:55;;;;;;;7.90;4.15;;;;;;;10.60;49.82;98489.66;5034738;28;20025;-56
2021/11/27 07:01:21;;;;;;;10.80;4.60;;;;;;;10.62;49.17;98494.81;5034505;28;20409;-56
2021/11/27 07:03:46;;;;;;;10.30;4.40;;;;;;;10.61;49.45;98496.63;5034638;28;20099;-55
2021/11/27 07:06:12;;;;;;;11.52;4.50;;;;;;;10.56;49.54;98493.69;5035067;28;20053;-55
2021/11/27 07:08:37;;;;;;;14.98;4.53;;;;;;;10.65;49.38;98515.84;5034536;28;20021;-55
2021/11/27 07:11:02;;;;;;;9.90;4.15;;;;;;;10.64;48.64;98516.84;5033107;28;20038;-55
2021/11/27 07:13:28;;;;;;;9.90;4.28;;;;;;;10.65;49.54;98521.19;5034334;28;20033;-55
2021/11/27 07:15:53;;;;;;;12.07;3.97;;;;;;;10.64;49.89;98523.03;5034153;28;20025;-55
2021/11/27 07:18:19;;;;;;;6.55;3.38;;;;;;;10.69;49.83;98535.88;5034250;28;20387;-55
2021/11/27 07:20:44;;;;;;;9.18;4.53;;;;;;;10.67;49.42;98544.09;5034168;28;20095;-55
2021/11/27 07:23:10;;;;;;;11.45;4.00;;;;;;;10.66;49.58;98541.63;5033547;28;20033;-55
2021/11/27 07:25:36;;;;;;;13.07;4.18;;;;;;;10.69;49.21;98550.06;5033882;28;20033;-55
2021/11/27 07:28:02;;;;;;;8.85;4.18;;;;;;;10.65;49.56;98553.31;5032360;28;20025;-56
2021/11/27 07:30:27;;;;;;;8.35;4.32;;;;;;;10.68;49.20;98559.16;5034282;28;20517;-56
2021/11/27 07:32:52;;;;;;;8.07;4.35;;;;;;;10.67;49.86;98560.16;5032524;28;20061;-56
2021/11/27 07:35:18;;;;;;;11.57;4.05;;;;;;;10.66;48.49;98568.38;5033689;28;20041;-56
2021/11/27 07:37:43;;;;;;;9.75;3.28;;;;;;;10.64;49.17;98571.22;5032224;28;20064;-56
2021/11/27 07:40:09;;;;;;;12.63;4.43;;;;;;;10.63;48.97;98580.28;5032539;28;20116;-56
2021/11/27 07:42:34;;;;;;;14.95;4.10;;;;;;;10.59;49.48;98579.00;5032395;28;20493;-56
2021/11/27 07:44:59;;;;;;;8.75;3.88;;;;;;;10.58;48.79;98585.34;5033563;28;20071;-56
2021/11/27 07:47:25;;;;;;;9.50;4.45;;;;;;;10.57;49.28;98594.41;5033303;28;20033;-55
2021/11/27 07:49:50;;;;;;;11.00;4.30;;;;;;;10.49;48.89;98589.16;5039528;28;20493;-55
2021/11/27 07:52:17;;;;;;;9.00;3.55;;;;;;;10.56;48.89;98608.81;5043810;28;20013;-55
2021/11/27 07:54:43;;;;;;;9.23;4.38;;;;;;;10.57;48.75;98605.13;5040502;28;20024;-55
2021/11/27 07:57:09;;;;;;;10.02;4.47;;;;;;;10.59;47.88;98616.47;5041918;28;20531;-56
2021/11/27 07:59:35;;;;;;;14.65;4.05;;;;;;;10.61;48.91;98614.44;5040806;28;20021;-55
2021/11/27 08:02:01;;;;;;;10.30;4.35;;;;;;;10.61;48.73;98614.44;5043873;28;20047;-55
2021/11/27 08:04:27;;;;;;;11.38;4.20;;;;;;;10.62;49.12;98616.09;5043198;28;20022;-55
2021/11/27 08:06:52;;;;;;;12.52;4.75;;;;;;;10.65;48.91;98628.28;5042453;28;20028;-55
2021/11/27 08:09:17;;;;;;;15.65;5.50;;;;;;;10.67;49.32;98629.75;5042284;28;20028;-55
2021/11/27 08:11:43;;;;;;;13.50;5.25;;;;;;;10.70;49.25;98634.75;5042340;28;20453;-55
2021/11/27 08:14:08;;;;;;;8.23;4.43;;;;;;;10.74;48.62;98645.94;5044634;28;20030;-55
2021/11/27 08:16:33;;;;;;;13.07;4.75;;;;;;;10.78;48.97;98637.34;5042042;28;20087;-55
2021/11/27 08:18:59;;;;;;;19.88;4.40;;;;;;;10.81;48.82;98642.31;5044121;28;20471;-56
2021/11/27 08:21:25;;;;;;;12.02;4.10;;;;;;;10.68;49.00;98626.06;5042994;28;20052;-55
2021/11/27 08:23:51;;;;;;;13.40;5.25;;;;;;;10.84;48.78;98652.66;5039964;28;20091;-55
2021/11/27 08:26:17;;;;;;;8.23;3.92;;;;;;;10.86;48.21;98655.19;5043339;28;20028;-55
2021/11/27 08:28:42;;;;;;;12.40;6.10;;;;;;;10.83;48.40;98651.00;5042980;28;20056;-55
2021/11/27 08:31:08;;;;;;;7.72;4.80;;;;;;;10.86;49.28;98658.66;5044677;28;20033;-56
2021/11/27 08:33:33;;;;;;;9.20;4.60;;;;;;;10.96;48.83;98661.09;5041107;28;20512;-55
2021/11/27 08:35:59;;;;;;;7.03;4.60;;;;;;;10.99;48.98;98674.94;5041692;28;20048;-55
2021/11/27 08:38:26;;;;;;;9.65;4.22;;;;;;;11.00;49.01;98660.50;5047406;28;20029;-56
2021/11/27 08:40:52;;;;;;;13.18;3.83;;;;;;;11.15;48.43;98673.06;5054041;28;20079;-56
2021/11/27 08:43:17;;;;;;;9.75;4.47;;;;;;;11.26;48.29;98672.59;5053873;28;20029;-55
2021/11/27 08:45:45;;;;;;;8.93;4.05;;;;;;;11.35;48.76;98680.38;5052839;28;20033;-56
2021/11/27 08:48:10;;;;;;;6.10;3.83;;;;;;;11.44;48.57;98675.72;5053273;28;20021;-56
2021/11/27 08:50:36;;;;;;;11.82;4.50;;;;;;;11.48;48.93;98677.00;5053084;28;20024;-55
2021/11/27 08:53:01;;;;;;;4.30;3.47;;;;;;;11.62;47.60;98686.88;5052290;28;20052;-56
2021/11/27 08:55:27;;;;;;;6.47;3.30;;;;;;;11.68;48.34;98684.28;5052386;28;20120;-56
2021/11/27 08:57:53;;;;;;;6.35;3.05;;;;;;;11.75;48.63;98684.41;5053656;28;20497;-56
2021/11/27 09:00:18;;;;;;;8.10;3.33;;;;;;;11.86;48.88;98691.94;5056416;28;20031;-56
2021/11/27 09:02:45;;;;;;;11.18;4.20;;;;;;;11.95;48.91;98693.47;5057481;28;20036;-56
2021/11/27 09:05:10;;;;;;;6.20;3.22;;;;;;;12.04;47.95;98689.66;5056247;28;20029;-57
2021/11/27 09:07:36;;;;;;;6.35;3.92;;;;;;;12.15;48.82;98702.56;5057282;28;20028;-56
2021/11/27 09:10:02;;;;;;;10.57;4.00;;;;;;;12.25;48.75;98703.06;5056872;28;20029;-56
2021/11/27 09:12:27;;;;;;;6.53;3.53;;;;;;;12.38;48.97;98706.88;5056116;28;20492;-56
2021/11/27 09:14:54;;;;;;;9.65;3.67;;;;;;;12.47;48.09;98705.75;5055820;28;20029;-56
2021/11/27 09:17:20;;;;;;;8.63;4.03;;;;;;;12.59;47.04;98705.00;5057211;28;20037;-56
2021/11/27 09:19:45;;;;;;;10.18;3.45;;;;;;;12.70;47.29;98707.16;5056718;28;20063;-56
2021/11/27 09:22:11;;;;;;;12.80;4.35;;;;;;;12.94;47.80;98699.69;5056843;28;20477;-57
2021/11/27 09:24:37;;;;;;;6.30;3.53;;;;;;;13.25;47.48;98700.97;5056877;28;20029;-56
2021/11/27 09:27:02;;;;;;;5.93;3.55;;;;;;;13.64;46.46;98711.09;5056866;28;20024;-56
2021/11/27 09:29:28;;;;;;;4.45;2.90;;;;;;;13.98;45.90;98719.09;5057219;28;20217;-56
2021/11/27 09:31:53;;;;;;;4.43;3.45;;;;;;;14.32;46.72;98718.13;5057091;28;20024;-57
2021/11/27 09:34:19;;;;;;;6.07;3.25;;;;;;;14.73;45.51;98717.13;5057259;28;20043;-56
2021/11/27 09:36:46;;;;;;;7.95;4.05;;;;;;;15.14;45.86;98726.66;5056926;28;20025;-56
2021/11/27 09:39:14;;;;;;;6.97;4.40;;;;;;;15.48;45.16;98722.03;5057035;28;20020;-56
2021/11/27 09:41:42;;;;;;;6.60;3.90;;;;;;;15.81;44.37;98727.31;5056831;28;20025;-56
2021/11/27 09:44:08;;;;;;;5.63;2.97;;;;;;;16.07;44.25;98732.59;5056952;28;20020;-56
2021/11/27 09:46:35;;;;;;;9.02;3.25;;;;;;;16.33;44.33;98727.06;5056691;28;20078;-56
2021/11/27 09:49:17;;;;;;;7.93;2.78;;;;;;;16.59;44.83;98729.59;5056764;28;20029;-56
2021/11/27 09:51:42;;;;;;;6.22;3.08;;;;;;;16.83;44.25;98727.97;5054882;28;20175;-57
2021/11/27 09:54:12;;;;;;;7.88;3.60;;;;;;;17.10;43.44;98728.53;5055279;28;20033;-56
2021/11/27 09:56:38;;;;;;;7.32;3.40;;;;;;;17.34;43.23;98731.22;5057046;28;20025;-56
2021/11/27 09:59:04;;;;;;;6.05;3.08;;;;;;;17.59;43.55;98744.72;5056352;28;20017;-56
2021/11/27 10:01:33;;;;;;;5.53;2.83;;;;;;;17.70;42.77;98735.03;5055930;28;20041;-57
2021/11/27 10:04:02;;;;;;;9.98;3.22;;;;;;;17.85;42.84;98743.59;5055314;28;20032;-56
2021/11/27 10:06:33;;;;;;;6.75;3.47;;;;;;;17.94;43.17;98743.06;5056157;28;20025;-56
2021/11/27 10:09:01;;;;;;;4.82;3.08;;;;;;;18.08;42.86;98742.88;5056496;28;20078;-56
2021/11/27 10:11:27;;;;;;;11.70;3.40;;;;;;;18.19;42.16;98739.41;5056222;28;20409;-56
2021/11/27 10:13:55;;;;;;;4.65;2.45;;;;;;;18.31;41.76;98732.16;5056756;28;20036;-56
2021/11/27 10:16:20;;;;;;;7.60;3.30;;;;;;;18.49;41.21;98745.66;5056722;28;20357;-56
2021/11/27 10:19:09;;;;;;;8.27;2.78;;;;;;;18.64;41.45;98743.38;5056044;28;20033;-56
2021/11/27 10:21:36;;;;;;;5.57;2.53;;;;;;;18.69;41.15;98727.22;5055317;28;20036;-56
2021/11/27 10:24:22;;;;;;;11.25;2.75;;;;;;;18.79;41.31;98734.78;5056112;28;20040;-57
2021/11/27 10:26:50;;;;;;;4.88;2.20;;;;;;;18.94;41.16;98749.56;5056354;28;20017;-56
2021/11/27 10:29:24;;;;;;;3.25;2.67;;;;;;;19.01;41.00;98728.53;5056465;28;20033;-57
2021/11/27 10:31:52;;;;;;;9.95;3.17;;;;;;;19.21;41.22;98743.69;5056812;28;20489;-57
2021/11/27 10:34:23;;;;;;;11.38;2.83;;;;;;;19.38;40.85;98741.88;5056438;28;20024;-56
2021/11/27 10:36:50;;;;;;;5.35;2.60;;;;;;;19.49;40.31;98743.81;5056278;28;20029;-56
2021/11/27 10:39:16;;;;;;;7.53;2.42;;;;;;;19.49;40.47;98730.22;5056629;28;20036;-56
2021/11/27 10:42:02;;;;;;;5.60;2.47;;;;;;;19.60;40.22;98741.06;5055058;28;20029;-56
2021/11/27 10:44:31;;;;;;;9.43;2.90;;;;;;;19.43;40.58;98742.88;5054870;28;20084;-56
2021/11/27 10:47:14;;;;;;;9.10;3.13;;;;;;;19.61;40.08;98741.91;5057996;28;20489;-55
2021/11/27 10:49:40;;;;;;;25.10;4.03;;;;;;;19.66;40.32;98725.72;5055010;28;20060;-56
2021/11/27 10:52:11;;;;;;;55.22;9.80;;;;;;;19.88;39.65;98734.88;5055884;28;20035;-59
2021/11/27 10:54:46;;;;;;;42.08;4.95;;;;;;;20.01;39.84;98740.06;5055029;28;20117;-57
2021/11/27 10:57:31;;;;;;;14.85;3.25;;;;;;;20.14;39.33;98747.09;5055462;28;20525;-55
2021/11/27 11:00:00;;;;;;;15.18;2.97;;;;;;;20.26;39.60;98748.75;5053667;28;20038;-57
2021/11/27 11:02:32;;;;;;;58.35;9.85;;;;;;;20.23;39.28;98754.66;5055296;28;20469;-55
2021/11/27 11:05:06;;;;;;;79.53;6.85;;;;;;;20.42;39.11;98751.75;5055422;28;20374;-55
2021/11/27 11:07:32;;;;;;;41.08;7.05;;;;;;;20.56;39.26;98758.53;5055343;28;20017;-57
2021/11/27 11:10:13;;;;;;;17.48;3.80;;;;;;;20.58;39.04;98750.94;5054378;28;20021;-58
2021/11/27 11:12:48;;;;;;;37.78;4.25;;;;;;;20.65;38.47;98762.53;5054591;28;20374;-57
2021/11/27 11:15:17;;;;;;;21.70;3.92;;;;;;;20.60;38.87;98770.59;5055388;28;20051;-56
2021/11/27 11:17:44;;;;;;;64.22;9.43;;;;;;;20.39;38.45;98763.09;5056292;28;20100;-57
2021/11/27 11:20:13;;;;;;;23.55;2.67;;;;;;;20.24;38.95;98767.19;5055244;28;20504;-57
2021/11/27 11:22:39;;;;;;;9.05;2.75;;;;;;;20.16;38.07;98767.53;5053515;28;20072;-57
2021/11/27 11:25:10;;;;;;;40.67;5.20;;;;;;;20.08;38.56;98773.34;5054788;28;20052;-57
2021/11/27 11:27:36;;;;;;;22.42;3.03;;;;;;;20.05;38.51;98773.84;5053972;28;20019;-57
2021/11/27 11:30:05;;;;;;;5.68;2.35;;;;;;;19.93;38.88;98770.34;5054963;28;20473;-57
2021/11/27 11:32:31;;;;;;;9.82;2.30;;;;;;;20.10;38.33;98768.50;5055513;28;20024;-57